Time;durP1;ratioP1;P1;durP2;ratioP2;P2;SDS_P1;SDS_P2;PMS_P1;PMS_P2;Temp;Humidity;BMP_temperature;BMP_pressure;BME280_temperature;BME280_humidity;BME280_pressure;Samples;Min_cycle;Max_cycle;Signal;HPM_P1;HPM_P2
2023/04/26 00:00:08;;;;;;;5.30;2.83;;;3.90;99.90;;;;;;5129029;28;20230;-50
2023/04/26 00:02:36;;;;;;;6.13;3.00;;;3.80;99.90;;;;;;5126503;27;20204;-50
2023/04/26 00:05:07;;;;;;;5.90;2.97;;;3.80;99.90;;;;;;5122375;27;20229;-51
2023/04/26 00:07:37;;;;;;;5.90;3.00;;;3.70;99.90;;;;;;5132665;27;20210;-50
2023/04/26 00:10:07;;;;;;;6.60;3.30;;;3.60;99.90;;;;;;5132541;27;20206;-51
2023/04/26 00:12:35;;;;;;;7.47;3.37;;;3.60;99.90;;;;;;5128290;27;20777;-50
2023/04/26 00:15:04;;;;;;;9.03;3.63;;;3.60;99.90;;;;;;5131633;27;20687;-50
2023/04/26 00:17:32;;;;;;;6.00;3.57;;;3.50;99.90;;;;;;5132673;27;20303;-51
2023/04/26 00:20:00;;;;;;;8.00;4.07;;;3.40;99.90;;;;;;5112118;28;20284;-50
2023/04/26 00:22:30;;;;;;;8.73;3.73;;;3.40;99.90;;;;;;5124585;27;20226;-50
2023/04/26 00:24:58;;;;;;;4.97;3.33;;;3.30;99.90;;;;;;5119050;27;20254;-51
2023/04/26 00:27:26;;;;;;;9.60;3.33;;;3.30;99.90;;;;;;5128251;27;20241;-50
2023/04/26 00:29:54;;;;;;;4.23;3.13;;;3.20;99.90;;;;;;5130103;27;20253;-50
2023/04/26 00:32:22;;;;;;;5.07;3.03;;;3.10;99.90;;;;;;5132102;27;20223;-51
2023/04/26 00:34:50;;;;;;;8.37;3.30;;;3.10;99.90;;;;;;5123361;27;20230;-50
2023/04/26 00:37:18;;;;;;;3.93;2.90;;;3.10;99.90;;;;;;5130878;27;20243;-50
2023/04/26 00:39:48;;;;;;;9.33;3.40;;;3.10;99.90;;;;;;5129521;27;20610;-50
2023/04/26 00:42:16;;;;;;;5.50;3.23;;;3.00;99.90;;;;;;5122125;27;20205;-50
2023/04/26 00:44:44;;;;;;;9.13;3.70;;;3.00;99.90;;;;;;5132170;27;20211;-50
2023/04/26 00:47:12;;;;;;;5.07;3.50;;;3.00;99.90;;;;;;5132121;27;20218;-50
2023/04/26 00:49:40;;;;;;;5.07;2.90;;;2.90;99.90;;;;;;5131848;27;20300;-50
2023/04/26 00:52:09;;;;;;;4.53;3.33;;;2.90;99.90;;;;;;5131809;27;20317;-50
2023/04/26 00:54:37;;;;;;;5.97;3.27;;;2.90;99.90;;;;;;5120219;27;20229;-50
2023/04/26 00:57:08;;;;;;;5.73;3.10;;;2.80;99.90;;;;;;5127423;27;20201;-51
2023/04/26 00:59:36;;;;;;;6.37;3.40;;;2.80;99.90;;;;;;5117746;27;20245;-50
2023/04/26 01:02:05;;;;;;;8.87;3.23;;;2.70;99.90;;;;;;5113432;27;20619;-51
2023/04/26 01:04:33;;;;;;;6.47;3.20;;;2.70;99.90;;;;;;5126828;27;20200;-51
2023/04/26 01:07:02;;;;;;;7.63;3.40;;;2.70;99.90;;;;;;5124278;27;20214;-50
2023/04/26 01:09:32;;;;;;;7.57;3.57;;;2.70;99.90;;;;;;5130765;27;20301;-50
2023/04/26 01:12:00;;;;;;;10.20;3.83;;;2.60;99.90;;;;;;5131628;27;20261;-50
2023/04/26 01:14:31;;;;;;;8.90;3.23;;;2.60;99.90;;;;;;5120445;27;20212;-50
2023/04/26 01:17:00;;;;;;;7.23;3.07;;;2.50;99.90;;;;;;5131391;27;20253;-51
2023/04/26 01:19:28;;;;;;;6.07;3.30;;;2.50;99.90;;;;;;5116336;27;20209;-50
2023/04/26 01:21:56;;;;;;;5.47;3.43;;;2.50;99.90;;;;;;5131716;27;20293;-50
2023/04/26 01:24:25;;;;;;;7.07;3.20;;;2.50;99.90;;;;;;5131388;27;20329;-51
2023/04/26 01:26:53;;;;;;;9.90;3.83;;;2.50;99.90;;;;;;5125815;27;20243;-50
2023/04/26 01:29:23;;;;;;;5.23;3.13;;;2.50;99.90;;;;;;5131528;27;20292;-51
2023/04/26 01:31:51;;;;;;;11.00;4.13;;;2.50;99.90;;;;;;5131338;27;20220;-51
2023/04/26 01:34:19;;;;;;;6.53;3.50;;;2.50;99.90;;;;;;5126433;27;20210;-50
2023/04/26 01:36:47;;;;;;;5.10;3.20;;;2.40;99.90;;;;;;5129306;27;20878;-50
2023/04/26 01:39:15;;;;;;;6.73;3.20;;;2.40;99.90;;;;;;5130910;27;20243;-50
2023/04/26 01:41:44;;;;;;;7.70;3.63;;;2.30;99.90;;;;;;5130631;27;20291;-51
2023/04/26 01:44:12;;;;;;;5.27;3.90;;;2.20;99.90;;;;;;5131128;27;20203;-51
2023/04/26 01:46:40;;;;;;;4.90;2.97;;;2.10;99.90;;;;;;5130708;27;20310;-50
2023/04/26 01:49:08;;;;;;;8.00;3.37;;;2.10;99.90;;;;;;5131143;27;20207;-50
2023/04/26 01:51:36;;;;;;;6.80;3.37;;;2.00;99.90;;;;;;5120401;27;20223;-51
2023/04/26 01:54:05;;;;;;;8.00;3.70;;;2.00;99.90;;;;;;5130441;27;20314;-50
2023/04/26 01:56:33;;;;;;;5.83;3.70;;;2.00;99.90;;;;;;5129521;27;20266;-50
2023/04/26 01:59:02;;;;;;;8.73;3.47;;;1.90;99.90;;;;;;5129609;27;20281;-51
2023/04/26 02:01:31;;;;;;;7.20;3.13;;;1.90;99.90;;;;;;5122609;27;20301;-51
2023/04/26 02:03:59;;;;;;;7.37;3.90;;;1.90;99.90;;;;;;5107671;28;20202;-50
2023/04/26 02:06:27;;;;;;;5.60;3.50;;;1.90;99.90;;;;;;5100861;27;20232;-50
2023/04/26 02:08:56;;;;;;;6.10;3.47;;;1.80;99.90;;;;;;5091522;28;20300;-50
2023/04/26 02:11:25;;;;;;;5.27;3.40;;;1.70;99.90;;;;;;5100924;28;20211;-50
2023/04/26 02:13:54;;;;;;;7.57;3.67;;;1.80;99.90;;;;;;5108874;28;20615;-50
2023/04/26 02:16:23;;;;;;;7.43;3.70;;;1.70;99.90;;;;;;5096895;28;20237;-51
2023/04/26 02:18:52;;;;;;;7.27;3.30;;;1.70;99.90;;;;;;5109674;28;20741;-50
2023/04/26 02:21:21;;;;;;;5.70;3.20;;;1.70;99.90;;;;;;5095857;28;20299;-50
2023/04/26 02:23:49;;;;;;;7.47;3.30;;;1.70;99.90;;;;;;5096703;28;20756;-51
2023/04/26 02:26:17;;;;;;;8.50;3.40;;;1.60;99.90;;;;;;5108580;28;20250;-50
2023/04/26 02:28:45;;;;;;;11.63;3.87;;;1.60;99.90;;;;;;5109568;28;20235;-50
2023/04/26 02:31:13;;;;;;;7.60;3.40;;;1.60;99.90;;;;;;5109529;28;20290;-50
2023/04/26 02:33:43;;;;;;;11.43;3.40;;;1.60;99.90;;;;;;5109084;28;20983;-49
2023/04/26 02:36:11;;;;;;;6.73;3.70;;;1.60;99.90;;;;;;5109509;28;20261;-51
2023/04/26 02:38:39;;;;;;;6.97;3.37;;;1.50;99.90;;;;;;5109506;28;20644;-51
2023/04/26 02:41:07;;;;;;;7.70;3.40;;;1.50;99.90;;;;;;5094795;28;20250;-50
2023/04/26 02:43:35;;;;;;;6.47;3.13;;;1.50;99.90;;;;;;5109521;28;20202;-50
2023/04/26 02:46:07;;;;;;;7.80;3.40;;;1.50;99.90;;;;;;5109578;28;20262;-51
2023/04/26 02:48:35;;;;;;;7.87;3.17;;;1.50;99.90;;;;;;5109300;28;20660;-51
2023/04/26 02:51:05;;;;;;;9.37;4.03;;;1.50;99.90;;;;;;5109243;28;20249;-50
2023/04/26 02:53:33;;;;;;;6.67;3.67;;;1.40;99.90;;;;;;5108736;28;20227;-50
2023/04/26 02:56:01;;;;;;;7.90;3.80;;;1.40;99.90;;;;;;5107033;28;20296;-50
2023/04/26 02:58:29;;;;;;;6.43;3.80;;;1.40;99.90;;;;;;5108869;28;20287;-50
2023/04/26 03:00:57;;;;;;;10.83;4.33;;;1.40;99.90;;;;;;5109022;28;20247;-50
2023/04/26 03:03:29;;;;;;;6.40;4.00;;;1.40;99.90;;;;;;5109041;28;20210;-50
2023/04/26 03:05:58;;;;;;;7.07;3.43;;;1.40;99.90;;;;;;5109146;28;20227;-50
2023/04/26 03:08:27;;;;;;;8.57;4.13;;;1.40;99.90;;;;;;5108945;28;20290;-50
2023/04/26 03:10:55;;;;;;;8.10;3.83;;;1.40;99.90;;;;;;5108640;28;20298;-50
2023/04/26 03:13:23;;;;;;;7.97;3.63;;;1.30;99.90;;;;;;5108762;28;20227;-51
2023/04/26 03:15:52;;;;;;;8.67;3.83;;;1.40;99.90;;;;;;5094632;28;20258;-50
2023/04/26 03:18:20;;;;;;;9.47;3.67;;;1.30;99.90;;;;;;5108926;28;20245;-49
2023/04/26 03:20:48;;;;;;;5.40;3.43;;;1.30;99.90;;;;;;5108859;28;20638;-50
2023/04/26 03:23:16;;;;;;;5.70;3.40;;;1.20;99.90;;;;;;5108985;28;20240;-50
2023/04/26 03:25:46;;;;;;;11.20;4.33;;;1.20;99.90;;;;;;5108427;28;20311;-50
2023/04/26 03:28:14;;;;;;;9.63;3.37;;;1.20;99.90;;;;;;5109142;28;20227;-49
2023/04/26 03:30:42;;;;;;;5.50;3.20;;;1.30;99.90;;;;;;5108873;28;20277;-49
2023/04/26 03:33:10;;;;;;;5.13;3.47;;;1.20;99.90;;;;;;5108703;28;20277;-50
2023/04/26 03:35:38;;;;;;;8.47;3.80;;;1.20;99.90;;;;;;5108471;28;20713;-51
2023/04/26 03:38:06;;;;;;;9.50;3.53;;;1.20;99.90;;;;;;5112615;28;20227;-50
2023/04/26 03:40:34;;;;;;;10.10;3.87;;;1.20;99.90;;;;;;5112940;28;20218;-50
2023/04/26 03:43:04;;;;;;;6.13;3.40;;;1.30;99.90;;;;;;5112572;28;20237;-50
2023/04/26 03:45:32;;;;;;;6.93;4.13;;;1.30;99.90;;;;;;5112556;28;20339;-51
2023/04/26 03:48:00;;;;;;;8.97;3.87;;;1.20;99.90;;;;;;5112811;28;20211;-50
2023/04/26 03:50:28;;;;;;;5.43;3.73;;;1.20;99.90;;;;;;5112814;28;20237;-50
2023/04/26 03:52:56;;;;;;;6.50;3.80;;;1.10;99.90;;;;;;5111986;28;20773;-50
2023/04/26 03:55:24;;;;;;;8.90;4.00;;;1.10;99.90;;;;;;5112968;28;20235;-51
2023/04/26 03:57:52;;;;;;;7.60;3.97;;;1.10;99.90;;;;;;5112589;28;20211;-50
2023/04/26 04:00:22;;;;;;;13.40;4.40;;;1.00;99.90;;;;;;5112918;28;20272;-51
2023/04/26 04:02:50;;;;;;;8.77;4.33;;;1.00;99.90;;;;;;5112689;28;20289;-51
2023/04/26 04:05:19;;;;;;;9.33;4.00;;;1.00;99.90;;;;;;5112366;28;20254;-50
2023/04/26 04:07:47;;;;;;;8.63;4.00;;;1.00;99.90;;;;;;5112788;28;20208;-50
2023/04/26 04:10:15;;;;;;;9.90;3.93;;;1.00;99.90;;;;;;5112282;28;20597;-51
2023/04/26 04:12:43;;;;;;;11.23;3.90;;;1.00;99.90;;;;;;5112459;28;20200;-50
2023/04/26 04:15:11;;;;;;;8.77;4.00;;;1.00;99.90;;;;;;5098343;28;20315;-51
2023/04/26 04:17:40;;;;;;;6.87;4.20;;;1.00;99.90;;;;;;5098108;28;20265;-50
2023/04/26 04:20:09;;;;;;;8.23;3.90;;;1.10;99.90;;;;;;5112296;28;20564;-50
2023/04/26 04:22:38;;;;;;;10.70;4.40;;;1.10;99.90;;;;;;5112157;28;20200;-50
2023/04/26 04:25:08;;;;;;;10.83;4.73;;;1.10;99.90;;;;;;5112201;28;20753;-50
2023/04/26 04:27:37;;;;;;;7.63;4.00;;;1.00;99.90;;;;;;5112085;28;20269;-50
2023/04/26 04:30:07;;;;;;;9.43;3.80;;;1.10;99.90;;;;;;5112489;28;20256;-50
2023/04/26 04:32:35;;;;;;;8.47;4.10;;;1.10;99.90;;;;;;5111812;28;20276;-50
2023/04/26 04:35:06;;;;;;;8.77;4.53;;;1.20;99.90;;;;;;5111760;28;20231;-51
2023/04/26 04:37:34;;;;;;;9.17;3.97;;;1.20;99.90;;;;;;5111949;28;20207;-50
2023/04/26 04:40:03;;;;;;;8.50;3.70;;;1.20;99.90;;;;;;5112057;28;20200;-50
2023/04/26 04:42:31;;;;;;;11.47;3.93;;;1.40;99.90;;;;;;5117390;27;20220;-50
2023/04/26 04:44:59;;;;;;;11.23;3.90;;;1.70;99.90;;;;;;5111314;28;20306;-51
2023/04/26 04:47:27;;;;;;;8.93;5.00;;;2.40;99.90;;;;;;5111318;28;20219;-51
2023/04/26 04:49:55;;;;;;;6.23;3.80;;;3.00;99.90;;;;;;5114719;27;20669;-51
2023/04/26 04:52:24;;;;;;;8.27;4.40;;;3.50;99.90;;;;;;5104131;27;20248;-51
2023/04/26 04:54:52;;;;;;;9.03;4.30;;;4.00;99.90;;;;;;5125270;27;20253;-51
2023/04/26 04:57:20;;;;;;;7.70;4.00;;;4.40;99.90;;;;;;5122362;27;20234;-49
2023/04/26 04:59:48;;;;;;;8.37;4.37;;;4.60;99.90;;;;;;5131823;27;20203;-50
2023/04/26 05:02:16;;;;;;;7.53;4.10;;;4.80;99.90;;;;;;5114730;27;20253;-51
2023/04/26 05:04:45;;;;;;;8.73;3.67;;;5.10;99.90;;;;;;5126948;27;20210;-51
2023/04/26 05:07:14;;;;;;;8.00;4.03;;;5.40;99.90;;;;;;5126905;27;21020;-51
2023/04/26 05:09:44;;;;;;;9.17;3.60;;;5.70;99.90;;;;;;5126039;27;20256;-50
2023/04/26 05:12:12;;;;;;;9.47;3.87;;;5.90;99.90;;;;;;5126721;27;20575;-51
2023/04/26 05:14:40;;;;;;;6.23;3.50;;;6.30;99.90;;;;;;5111532;27;20266;-51
2023/04/26 05:17:08;;;;;;;6.87;3.63;;;6.60;99.90;;;;;;5108565;28;20211;-50
2023/04/26 05:19:36;;;;;;;8.03;3.63;;;6.90;99.90;;;;;;5110551;28;20936;-51
2023/04/26 05:22:05;;;;;;;9.20;3.83;;;7.00;99.90;;;;;;5110880;28;20235;-51
2023/04/26 05:24:33;;;;;;;5.87;3.57;;;7.30;99.90;;;;;;5112590;27;20279;-51
2023/04/26 05:27:03;;;;;;;6.57;3.10;;;7.90;99.90;;;;;;5106661;28;20211;-50
2023/04/26 05:29:31;;;;;;;6.13;3.10;;;7.80;99.90;;;;;;5108127;27;20662;-50
2023/04/26 05:31:59;;;;;;;9.70;4.10;;;7.40;99.90;;;;;;5090085;28;20626;-51
2023/04/26 05:34:27;;;;;;;8.47;3.73;;;7.20;99.90;;;;;;5093477;28;20228;-51
2023/04/26 05:36:55;;;;;;;7.50;4.07;;;6.90;99.90;;;;;;5104988;28;20207;-51
2023/04/26 05:39:23;;;;;;;8.33;3.67;;;6.80;99.90;;;;;;5096767;28;20236;-51
2023/04/26 05:41:51;;;;;;;5.93;3.10;;;6.40;99.90;;;;;;5104784;28;20226;-51
2023/04/26 05:44:20;;;;;;;9.03;4.03;;;6.30;99.90;;;;;;5110605;28;20250;-51
2023/04/26 05:46:48;;;;;;;7.80;4.00;;;6.20;99.90;;;;;;5105591;28;20259;-51
2023/04/26 05:49:16;;;;;;;5.97;3.57;;;6.20;99.90;;;;;;5100983;28;20218;-51
2023/04/26 05:51:44;;;;;;;10.10;3.87;;;6.10;99.90;;;;;;5109973;28;20280;-51
2023/04/26 05:54:12;;;;;;;9.43;4.10;;;6.10;99.90;;;;;;5110334;28;20266;-51
2023/04/26 05:56:40;;;;;;;11.30;3.80;;;6.20;99.90;;;;;;5110073;28;20263;-51
2023/04/26 05:59:08;;;;;;;8.13;4.13;;;6.30;99.90;;;;;;5109691;28;20582;-51
2023/04/26 06:01:38;;;;;;;7.70;3.97;;;6.40;99.90;;;;;;5109190;28;20298;-51
2023/04/26 06:04:06;;;;;;;8.77;4.93;;;6.40;99.90;;;;;;5103065;28;20344;-51
2023/04/26 06:06:35;;;;;;;8.40;4.53;;;6.30;99.90;;;;;;5102826;28;20234;-51
2023/04/26 06:09:04;;;;;;;8.93;5.00;;;6.40;99.90;;;;;;5109904;28;20730;-51
2023/04/26 06:11:32;;;;;;;10.70;4.33;;;6.80;99.90;;;;;;5110097;28;20211;-51
2023/04/26 06:14:00;;;;;;;11.33;4.30;;;7.20;99.90;;;;;;5109665;28;20270;-51
2023/04/26 06:16:28;;;;;;;8.83;4.00;;;7.50;99.90;;;;;;5109705;28;20235;-51
2023/04/26 06:18:57;;;;;;;5.93;3.70;;;8.00;99.90;;;;;;5109375;28;20207;-51
2023/04/26 06:21:26;;;;;;;10.43;4.27;;;8.60;99.90;;;;;;5109798;28;20235;-50
2023/04/26 06:23:54;;;;;;;10.03;4.13;;;9.10;99.90;;;;;;5109774;28;20207;-51
2023/04/26 06:26:22;;;;;;;6.47;3.80;;;9.20;99.90;;;;;;5109495;28;20216;-51
2023/04/26 06:28:50;;;;;;;9.67;4.37;;;9.60;99.90;;;;;;5109528;28;20215;-52
2023/04/26 06:31:20;;;;;;;9.93;4.20;;;10.00;99.90;;;;;;5109309;28;20295;-51
2023/04/26 06:33:48;;;;;;;7.53;4.30;;;10.30;99.90;;;;;;5109519;28;20211;-51
2023/04/26 06:36:18;;;;;;;10.40;3.93;;;10.50;99.90;;;;;;5100296;28;20243;-51
2023/04/26 06:38:46;;;;;;;10.33;3.97;;;10.90;99.90;;;;;;5103257;28;20294;-50
2023/04/26 06:41:14;;;;;;;9.87;4.40;;;10.90;99.90;;;;;;5109389;28;20273;-51
2023/04/26 06:43:42;;;;;;;10.03;4.73;;;11.00;99.90;;;;;;5109134;28;20234;-51
2023/04/26 06:46:10;;;;;;;10.93;4.60;;;11.00;99.90;;;;;;5108712;28;20219;-51
2023/04/26 06:48:38;;;;;;;9.17;4.40;;;11.00;99.90;;;;;;5109284;28;20211;-52
2023/04/26 06:51:07;;;;;;;10.07;4.47;;;11.10;99.90;;;;;;5109180;28;20717;-51
2023/04/26 06:53:37;;;;;;;9.52;4.25;;;11.20;99.90;;;;;;5109248;28;20265;-51
2023/04/26 06:56:05;;;;;;;8.82;4.32;;;11.60;99.90;;;;;;5106591;28;20264;-52
2023/04/26 06:58:33;;;;;;;8.30;4.28;;;11.70;99.90;;;;;;5106758;28;20290;-52
2023/04/26 07:01:02;;;;;;;7.55;4.38;;;12.00;99.90;;;;;;5099150;28;20636;-52
2023/04/26 07:03:31;;;;;;;8.88;4.20;;;12.10;99.90;;;;;;5092809;28;20211;-51
2023/04/26 07:05:59;;;;;;;11.65;4.60;;;12.00;99.90;;;;;;5095510;28;20715;-52
2023/04/26 07:08:27;;;;;;;11.10;4.43;;;12.10;99.90;;;;;;5108485;28;20295;-52
2023/04/26 07:10:56;;;;;;;6.80;4.53;;;12.40;99.90;;;;;;5094024;28;20237;-51
2023/04/26 07:13:25;;;;;;;6.35;4.00;;;12.70;99.90;;;;;;5109027;28;20754;-51
2023/04/26 07:15:54;;;;;;;10.73;4.50;;;13.00;99.90;;;;;;5108688;28;20255;-51
2023/04/26 07:18:22;;;;;;;13.85;6.85;;;13.10;99.90;;;;;;5098947;28;20254;-52
2023/04/26 07:20:50;;;;;;;8.43;4.10;;;13.20;99.90;;;;;;5104449;28;20633;-51
2023/04/26 07:23:18;;;;;;;7.63;4.20;;;13.40;99.90;;;;;;5108529;28;20290;-51
2023/04/26 07:25:46;;;;;;;8.93;4.55;;;13.40;99.90;;;;;;5108060;28;20314;-53
2023/04/26 07:28:15;;;;;;;9.57;4.22;;;13.60;99.90;;;;;;5108752;28;20275;-52
2023/04/26 07:30:43;;;;;;;6.13;3.67;;;13.90;99.90;;;;;;5109022;28;20238;-52
2023/04/26 07:33:11;;;;;;;8.32;3.80;;;13.70;99.90;;;;;;5108560;28;20235;-52
2023/04/26 07:35:40;;;;;;;9.70;3.40;;;13.80;99.90;;;;;;5096621;28;20236;-53
2023/04/26 07:38:07;;;;;;;7.45;3.35;;;14.00;99.90;;;;;;5111567;28;20235;-52
2023/04/26 07:40:36;;;;;;;6.90;3.10;;;14.10;99.90;;;;;;5108299;28;20207;-52
2023/04/26 07:43:04;;;;;;;8.48;3.22;;;14.10;99.90;;;;;;5108405;28;20213;-52
2023/04/26 07:45:34;;;;;;;9.98;3.55;;;14.30;99.90;;;;;;5108375;28;20255;-52
2023/04/26 07:48:02;;;;;;;9.45;3.75;;;13.10;99.90;;;;;;5108620;28;20218;-52
2023/04/26 07:50:30;;;;;;;8.60;4.05;;;12.60;99.90;;;;;;5108192;28;20291;-52
2023/04/26 07:52:58;;;;;;;8.38;3.72;;;12.90;99.90;;;;;;5108773;28;20203;-51
2023/04/26 07:55:26;;;;;;;7.20;3.58;;;13.20;99.90;;;;;;5108607;28;20306;-51
2023/04/26 07:57:54;;;;;;;10.15;4.30;;;13.40;99.90;;;;;;5108246;28;20204;-51
2023/04/26 08:00:22;;;;;;;9.60;3.70;;;13.60;99.90;;;;;;5100098;28;20299;-52
2023/04/26 08:02:51;;;;;;;7.65;3.42;;;13.60;99.90;;;;;;5108477;28;20212;-52
2023/04/26 08:05:20;;;;;;;9.52;3.70;;;13.60;99.90;;;;;;5108374;28;20231;-52
2023/04/26 08:07:49;;;;;;;6.43;3.47;;;13.60;99.90;;;;;;5108599;28;20298;-52
2023/04/26 08:10:17;;;;;;;6.38;2.97;;;13.90;99.90;;;;;;5099646;28;20251;-52
2023/04/26 08:12:45;;;;;;;6.45;3.15;;;13.30;99.90;;;;;;5106564;28;20200;-52
2023/04/26 08:15:13;;;;;;;6.38;3.00;;;12.80;99.90;;;;;;5107704;28;20230;-52
2023/04/26 08:17:41;;;;;;;5.40;3.47;;;12.50;99.90;;;;;;5111512;28;20220;-51
2023/04/26 08:20:11;;;;;;;6.57;3.42;;;12.20;99.90;;;;;;5113467;28;20211;-52
2023/04/26 08:22:39;;;;;;;5.90;3.00;;;11.80;99.90;;;;;;5124676;27;20211;-52
2023/04/26 08:25:08;;;;;;;4.77;3.43;;;11.50;99.90;;;;;;5127026;27;20344;-51
2023/04/26 08:27:36;;;;;;;6.07;3.53;;;11.30;99.90;;;;;;5102219;27;20206;-51
2023/04/26 08:30:05;;;;;;;6.40;4.00;;;11.10;99.90;;;;;;5132325;27;20734;-51
2023/04/26 08:32:34;;;;;;;6.83;3.20;;;11.00;99.90;;;;;;5110214;27;20195;-51
2023/04/26 08:35:02;;;;;;;6.90;3.70;;;11.10;99.90;;;;;;5121511;27;20234;-51
2023/04/26 08:37:31;;;;;;;8.13;3.47;;;11.00;99.90;;;;;;5132042;27;20747;-51
2023/04/26 08:39:59;;;;;;;4.77;3.23;;;11.00;99.90;;;;;;5131118;27;20230;-51
2023/04/26 08:42:28;;;;;;;7.57;3.50;;;11.00;99.90;;;;;;5130651;27;20207;-51
2023/04/26 08:45:00;;;;;;;7.60;3.40;;;11.00;99.90;;;;;;5128493;27;20254;-51
2023/04/26 08:47:35;;;;;;;7.00;3.17;;;11.10;99.90;;;;;;5121289;27;20744;-51
2023/04/26 08:50:05;;;;;;;7.10;3.63;;;11.00;99.90;;;;;;5118440;27;20206;-51
2023/04/26 08:52:35;;;;;;;6.83;3.80;;;11.10;99.90;;;;;;5105009;27;20228;-52
2023/04/26 08:55:06;;;;;;;6.97;3.53;;;11.30;99.90;;;;;;5124963;27;20219;-51
2023/04/26 08:57:35;;;;;;;4.87;2.90;;;11.30;99.90;;;;;;5116704;27;20287;-51
2023/04/26 09:00:05;;;;;;;9.73;3.60;;;11.50;99.90;;;;;;5126086;27;20199;-51
2023/04/26 09:02:35;;;;;;;8.07;3.37;;;11.40;99.90;;;;;;5119910;27;20559;-51
2023/04/26 09:05:05;;;;;;;7.40;3.70;;;11.60;99.90;;;;;;5113423;27;20237;-51
2023/04/26 09:07:39;;;;;;;6.60;3.23;;;11.80;99.90;;;;;;5118499;27;20203;-51
2023/04/26 09:10:08;;;;;;;9.83;3.90;;;11.80;99.90;;;;;;5119072;27;20293;-51
2023/04/26 09:12:37;;;;;;;7.17;3.40;;;11.90;99.90;;;;;;5118800;27;20302;-51
2023/04/26 09:15:07;;;;;;;6.63;2.87;;;11.90;99.90;;;;;;5114131;27;20281;-51
2023/04/26 09:17:36;;;;;;;6.60;3.20;;;11.90;99.90;;;;;;5120813;27;20318;-50
2023/04/26 09:20:19;;;;;;;8.37;2.67;;;12.10;99.90;;;;;;5111955;27;20287;-50
2023/04/26 09:22:50;;;;;;;7.87;2.80;;;12.40;99.90;;;;;;5112811;27;20207;-51
2023/04/26 09:25:27;;;;;;;6.67;2.60;;;12.50;99.90;;;;;;5113637;27;20288;-51
2023/04/26 09:27:56;;;;;;;6.10;2.60;;;12.50;99.90;;;;;;5119650;27;20211;-51
2023/04/26 09:30:24;;;;;;;5.97;2.50;;;12.40;99.90;;;;;;5129925;27;20298;-51
2023/04/26 09:32:55;;;;;;;7.83;3.33;;;12.10;99.90;;;;;;5129657;27;20230;-51
2023/04/26 09:35:28;;;;;;;6.37;2.53;;;12.00;99.90;;;;;;5108889;27;20284;-50
2023/04/26 09:37:59;;;;;;;8.20;2.63;;;12.00;99.90;;;;;;5131081;27;20191;-51
2023/04/26 09:40:37;;;;;;;7.93;3.03;;;11.90;99.90;;;;;;5121945;27;20206;-50
2023/04/26 09:43:06;;;;;;;6.00;2.60;;;11.90;99.90;;;;;;5129699;27;20202;-51
2023/04/26 09:45:45;;;;;;;5.13;3.00;;;11.80;99.90;;;;;;5130884;27;20280;-51
2023/04/26 09:48:16;;;;;;;5.33;2.70;;;11.80;99.90;;;;;;5117775;27;20199;-51
2023/04/26 09:50:45;;;;;;;7.57;2.87;;;11.70;99.90;;;;;;5120571;27;20267;-51
2023/04/26 09:53:30;;;;;;;5.97;2.80;;;11.70;99.90;;;;;;5130585;27;20283;-50
2023/04/26 09:56:07;;;;;;;3.00;2.47;;;11.90;99.90;;;;;;5117778;27;20681;-52
2023/04/26 09:58:37;;;;;;;2.90;2.10;;;12.10;99.90;;;;;;5130610;27;20205;-51
2023/04/26 10:01:06;;;;;;;3.30;2.30;;;12.20;98.60;;;;;;5129103;27;20203;-51
2023/04/26 10:03:35;;;;;;;5.67;2.20;;;12.30;97.10;;;;;;5126075;27;20766;-51
2023/04/26 10:06:04;;;;;;;6.67;2.30;;;12.40;96.10;;;;;;5115781;27;20273;-51
2023/04/26 10:08:34;;;;;;;5.60;2.13;;;12.10;96.10;;;;;;5110090;28;20203;-51
2023/04/26 10:11:04;;;;;;;4.93;2.47;;;12.10;97.50;;;;;;5123630;27;20202;-50
2023/04/26 10:13:32;;;;;;;5.33;2.60;;;12.00;97.20;;;;;;5130492;27;20957;-51
2023/04/26 10:16:01;;;;;;;6.53;2.70;;;12.00;97.60;;;;;;5112649;27;20276;-51
2023/04/26 10:18:30;;;;;;;4.83;2.80;;;12.00;97.00;;;;;;5129744;27;20207;-51
2023/04/26 10:21:02;;;;;;;5.10;2.50;;;12.00;97.20;;;;;;5130158;27;20294;-51
2023/04/26 10:23:30;;;;;;;7.17;2.70;;;12.10;97.80;;;;;;5130383;27;20234;-52
2023/04/26 10:25:59;;;;;;;4.00;2.30;;;12.10;98.00;;;;;;5123654;27;20854;-51
2023/04/26 10:28:55;;;;;;;7.67;2.70;;;12.10;96.80;;;;;;5130258;27;20290;-51
2023/04/26 10:32:02;;;;;;;4.20;2.33;;;11.90;96.10;;;;;;5110788;27;20700;-51
2023/04/26 10:34:32;;;;;;;4.00;2.27;;;12.00;97.60;;;;;;5130094;27;20211;-51
2023/04/26 10:37:10;;;;;;;4.17;2.60;;;12.10;98.90;;;;;;5129332;27;20349;-51
2023/04/26 10:39:39;;;;;;;4.30;2.20;;;12.20;98.40;;;;;;5130130;27;20245;-51
2023/04/26 10:42:24;;;;;;;6.37;3.00;;;12.30;98.40;;;;;;5129520;27;20206;-52
2023/04/26 10:44:54;;;;;;;6.73;2.70;;;12.30;97.70;;;;;;5129774;27;20313;-51
2023/04/26 10:47:24;;;;;;;5.80;2.30;;;12.40;97.80;;;;;;5128564;27;20222;-51
2023/04/26 10:49:52;;;;;;;3.77;2.40;;;12.30;96.40;;;;;;5129921;27;20210;-51
2023/04/26 10:52:21;;;;;;;5.63;2.43;;;12.30;96.60;;;;;;5129630;27;20209;-51
2023/04/26 10:54:55;;;;;;;5.57;2.43;;;12.40;96.10;;;;;;5129283;27;20199;-53
2023/04/26 10:57:40;;;;;;;6.73;2.87;;;12.60;97.80;;;;;;5128401;27;20284;-51
2023/04/26 11:00:35;;;;;;;4.77;2.57;;;12.80;98.40;;;;;;5105988;27;20206;-51
2023/04/26 11:03:08;;;;;;;6.67;2.37;;;13.10;98.30;;;;;;5120533;27;20242;-51
2023/04/26 11:05:55;;;;;;;6.37;2.77;;;13.20;98.00;;;;;;5129774;27;20229;-51
2023/04/26 11:08:28;;;;;;;4.80;2.50;;;13.30;97.80;;;;;;5129153;27;20199;-51
2023/04/26 11:11:09;;;;;;;4.77;2.40;;;13.20;95.80;;;;;;5125263;27;20210;-51
2023/04/26 11:13:40;;;;;;;4.17;2.40;;;13.00;94.90;;;;;;5091510;28;20299;-51
2023/04/26 11:16:11;;;;;;;7.40;2.73;;;12.80;96.30;;;;;;5109015;27;20227;-52
2023/04/26 11:18:41;;;;;;;5.37;2.90;;;12.70;95.90;;;;;;5122646;27;20284;-51
2023/04/26 11:21:11;;;;;;;7.00;3.23;;;12.60;95.70;;;;;;5122903;27;20213;-51
2023/04/26 11:23:41;;;;;;;6.00;2.80;;;12.40;94.90;;;;;;5129246;27;20210;-52
2023/04/26 11:26:09;;;;;;;4.13;2.60;;;12.10;95.80;;;;;;5129208;27;20215;-52
2023/04/26 11:28:39;;;;;;;4.43;2.73;;;12.20;95.20;;;;;;5127078;28;20203;-51
2023/04/26 11:31:08;;;;;;;7.30;3.10;;;12.50;96.00;;;;;;5125740;28;20199;-52
2023/04/26 11:33:36;;;;;;;6.77;2.70;;;12.60;96.00;;;;;;5122810;28;20715;-52
2023/04/26 11:36:05;;;;;;;6.37;2.70;;;12.60;96.00;;;;;;5126208;28;20227;-51
2023/04/26 11:38:32;;;;;;;4.83;2.70;;;12.70;97.00;;;;;;5129121;28;20254;-51
2023/04/26 11:41:02;;;;;;;8.57;2.80;;;13.00;97.90;;;;;;5128748;28;20290;-51
2023/04/26 11:43:35;;;;;;;5.83;2.73;;;13.10;96.70;;;;;;5127100;28;20346;-51
2023/04/26 11:46:05;;;;;;;5.23;2.47;;;12.90;95.80;;;;;;5127844;28;20214;-51
2023/04/26 11:48:35;;;;;;;5.90;3.03;;;12.70;95.80;;;;;;5119826;28;20581;-51
2023/04/26 11:51:05;;;;;;;7.37;3.60;;;12.50;95.10;;;;;;5126772;28;20673;-51
2023/04/26 11:53:37;;;;;;;5.40;3.10;;;12.30;94.60;;;;;;5122994;28;20210;-52
2023/04/26 11:56:14;;;;;;;8.10;3.23;;;12.20;94.20;;;;;;5127260;28;20223;-52
2023/04/26 11:58:44;;;;;;;10.13;3.23;;;12.30;95.10;;;;;;5131998;27;20264;-51
2023/04/26 12:01:22;;;;;;;8.00;3.40;;;12.40;96.20;;;;;;5133104;27;20290;-51
2023/04/26 12:03:51;;;;;;;5.20;2.93;;;12.60;97.10;;;;;;5133212;27;20643;-52
2023/04/26 12:06:20;;;;;;;4.90;3.00;;;12.70;96.70;;;;;;5132530;27;20233;-51
2023/04/26 12:08:50;;;;;;;4.53;2.87;;;12.70;96.10;;;;;;5124755;27;20273;-52
2023/04/26 12:11:19;;;;;;;6.07;3.00;;;12.80;95.60;;;;;;5128958;27;20259;-51
2023/04/26 12:13:47;;;;;;;4.33;2.80;;;13.00;96.70;;;;;;5131010;27;20308;-51
2023/04/26 12:16:16;;;;;;;7.70;3.10;;;13.10;96.80;;;;;;5132150;27;20313;-52
2023/04/26 12:18:54;;;;;;;8.40;4.10;;;13.20;96.30;;;;;;5122689;27;20592;-52
2023/04/26 12:21:23;;;;;;;7.80;3.20;;;13.00;95.60;;;;;;5128672;27;20218;-52
2023/04/26 12:23:51;;;;;;;4.33;2.53;;;13.00;95.60;;;;;;5132670;27;20215;-51
2023/04/26 12:26:19;;;;;;;5.07;2.70;;;13.00;95.60;;;;;;5120846;27;20315;-51
2023/04/26 12:28:47;;;;;;;7.23;3.03;;;13.00;95.90;;;;;;5114060;27;20227;-51
2023/04/26 12:31:16;;;;;;;6.53;2.87;;;13.10;96.00;;;;;;5123411;27;20294;-51
2023/04/26 12:33:44;;;;;;;5.70;3.07;;;13.30;96.20;;;;;;5132034;27;20975;-51
2023/04/26 12:36:13;;;;;;;5.10;2.80;;;13.30;96.00;;;;;;5132153;27;20279;-51
2023/04/26 12:38:41;;;;;;;7.63;3.53;;;13.20;96.60;;;;;;5117959;27;20274;-52
2023/04/26 12:41:10;;;;;;;8.13;3.23;;;13.20;96.30;;;;;;5104355;27;20272;-51
2023/04/26 12:43:38;;;;;;;5.18;3.05;;;13.40;97.30;;;;;;5128354;27;20279;-52
2023/04/26 12:46:06;;;;;;;8.80;4.20;;;13.30;95.80;;;;;;5131715;27;20283;-52
2023/04/26 12:48:35;;;;;;;14.27;4.77;;;13.30;96.20;;;;;;5131878;27;20207;-52
2023/04/26 12:51:04;;;;;;;6.53;2.77;;;13.30;95.70;;;;;;5132185;27;20643;-51
2023/04/26 12:53:32;;;;;;;10.33;4.63;;;13.30;94.90;;;;;;5131842;27;20203;-52
2023/04/26 12:56:00;;;;;;;8.70;3.67;;;13.30;96.50;;;;;;5131694;27;20579;-52
2023/04/26 12:58:28;;;;;;;9.03;2.90;;;13.20;95.70;;;;;;5132008;27;20219;-52
2023/04/26 13:00:56;;;;;;;10.03;4.13;;;13.00;95.50;;;;;;5131903;27;20267;-51